Time;durP1;ratioP1;P1;durP2;ratioP2;P2;SDS_P1;SDS_P2;PMS_P1;PMS_P2;Temp;Humidity;BMP_temperature;BMP_pressure;BME280_temperature;BME280_humidity;BME280_pressure;Samples;Min_cycle;Max_cycle;Signal;HPM_P1;HPM_P2
2022/10/13 04:32:36;;;;;;;;;16.67;15.67;;;;;;;;5036145;28;45435;-61
2022/10/13 04:35:01;;;;;;;;;17.00;17.00;;;;;;;;5039017;28;45450;-61
2022/10/13 04:37:26;;;;;;;;;16.67;16.67;;;;;;;;5038486;28;45434;-61
2022/10/13 04:39:51;;;;;;;;;15.33;14.00;;;;;;;;5038570;28;45299;-61
2022/10/13 04:42:17;;;;;;;;;17.33;15.33;;;;;;;;5038916;28;45523;-61
2022/10/13 04:44:42;;;;;;;;;16.33;15.67;;;;;;;;5038700;28;45360;-61
2022/10/13 04:47:07;;;;;;;;;15.33;14.00;;;;;;;;5038240;28;45562;-61
2022/10/13 04:49:33;;;;;;;;;15.67;14.67;;;;;;;;5038928;28;45419;-61
2022/10/13 04:51:58;;;;;;;;;12.33;11.33;;;;;;;;5038268;28;45385;-61
2022/10/13 04:54:23;;;;;;;;;17.00;13.33;;;;;;;;5032859;28;45540;-61
2022/10/13 04:56:48;;;;;;;;;14.00;11.67;;;;;;;;5019374;28;45745;-61
2022/10/13 04:59:13;;;;;;;;;11.67;10.00;;;;;;;;5036446;28;45536;-61
2022/10/13 05:01:39;;;;;;;;;13.33;12.67;;;;;;;;5038356;28;45941;-62
2022/10/13 05:04:04;;;;;;;;;10.67;10.67;;;;;;;;5020400;28;45482;-62
2022/10/13 05:06:32;;;;;;;;;10.33;10.33;;;;;;;;5038480;28;45602;-62
2022/10/13 05:08:57;;;;;;;;;14.33;12.67;;;;;;;;5035419;28;46253;-62
2022/10/13 05:11:23;;;;;;;;;13.00;10.67;;;;;;;;5038693;28;45760;-61
2022/10/13 05:13:48;;;;;;;;;14.00;11.33;;;;;;;;5038154;28;45406;-61
2022/10/13 05:16:14;;;;;;;;;12.67;11.00;;;;;;;;5038581;28;45612;-61
2022/10/13 05:18:39;;;;;;;;;9.00;9.00;;;;;;;;5037235;28;45609;-62
2022/10/13 05:21:06;;;;;;;;;8.67;8.67;;;;;;;;5039361;28;45320;-62
2022/10/13 05:23:31;;;;;;;;;5.33;4.33;;;;;;;;5038179;28;45479;-61
2022/10/13 05:25:59;;;;;;;;;10.33;10.00;;;;;;;;5038199;28;45773;-61
2022/10/13 05:28:25;;;;;;;;;9.00;8.67;;;;;;;;5036680;28;45559;-62
2022/10/13 05:30:50;;;;;;;;;13.33;10.67;;;;;;;;5037362;28;45314;-61
2022/10/13 05:33:15;;;;;;;;;13.33;11.00;;;;;;;;5037583;28;45674;-61
2022/10/13 05:35:40;;;;;;;;;10.00;8.00;;;;;;;;5037354;28;45324;-61
2022/10/13 05:38:06;;;;;;;;;9.67;9.00;;;;;;;;5037334;28;45674;-61
2022/10/13 05:40:32;;;;;;;;;8.00;7.67;;;;;;;;5037846;28;45395;-61
2022/10/13 05:42:57;;;;;;;;;12.33;10.33;;;;;;;;5037075;28;45554;-60
2022/10/13 05:45:23;;;;;;;;;9.00;8.00;;;;;;;;5037913;28;45392;-61
2022/10/13 05:47:48;;;;;;;;;8.67;7.00;;;;;;;;5035555;28;46076;-62
2022/10/13 05:50:13;;;;;;;;;11.00;8.00;;;;;;;;5019667;28;45583;-61
2022/10/13 05:52:39;;;;;;;;;7.33;7.33;;;;;;;;5037697;28;45789;-62
2022/10/13 05:55:06;;;;;;;;;10.33;8.33;;;;;;;;5037434;28;45365;-62
2022/10/13 05:57:33;;;;;;;;;12.67;10.33;;;;;;;;5033629;28;45784;-63
2022/10/13 06:00:04;;;;;;;;;11.67;9.00;;;;;;;;5032660;28;45474;-62
2022/10/13 06:02:33;;;;;;;;;7.33;6.67;;;;;;;;5032778;28;45241;-62
2022/10/13 06:04:59;;;;;;;;;12.00;9.67;;;;;;;;5037289;28;45642;-62
2022/10/13 06:07:24;;;;;;;;;7.33;6.33;;;;;;;;5037636;28;45486;-62
2022/10/13 06:09:49;;;;;;;;;10.00;8.00;;;;;;;;5036506;28;45412;-62
2022/10/13 06:12:15;;;;;;;;;10.33;7.67;;;;;;;;5036581;28;45336;-62
2022/10/13 06:14:40;;;;;;;;;8.00;7.00;;;;;;;;5037087;28;45344;-62
2022/10/13 06:17:05;;;;;;;;;9.00;9.00;;;;;;;;5037121;28;45585;-62
2022/10/13 06:19:31;;;;;;;;;7.00;7.00;;;;;;;;5036021;28;46910;-62
2022/10/13 06:21:56;;;;;;;;;8.33;8.00;;;;;;;;5037226;28;45382;-75
2022/10/13 06:24:21;;;;;;;;;9.67;8.00;;;;;;;;5037547;28;45299;-75
2022/10/13 06:26:46;;;;;;;;;7.00;5.67;;;;;;;;5036311;28;45456;-74
2022/10/13 06:29:12;;;;;;;;;6.33;5.33;;;;;;;;5036827;28;45407;-73
2022/10/13 06:31:37;;;;;;;;;7.33;6.33;;;;;;;;5032552;28;45351;-74
2022/10/13 06:34:02;;;;;;;;;7.67;5.00;;;;;;;;5031281;28;45470;-74
2022/10/13 06:36:27;;;;;;;;;4.00;4.00;;;;;;;;5025201;28;46222;-75
2022/10/13 06:38:52;;;;;;;;;7.67;6.67;;;;;;;;5034867;28;45529;-75
2022/10/13 06:41:18;;;;;;;;;11.33;5.33;;;;;;;;5037917;28;45954;-76
2022/10/13 06:43:43;;;;;;;;;6.33;6.33;;;;;;;;5037327;28;45842;-76
2022/10/13 06:46:09;;;;;;;;;9.33;5.67;;;;;;;;5036303;28;47205;-76
2022/10/13 06:48:34;;;;;;;;;10.33;7.67;;;;;;;;5037502;28;45378;-76
2022/10/13 06:51:01;;;;;;;;;8.33;6.00;;;;;;;;5037266;28;45340;-76
2022/10/13 06:53:26;;;;;;;;;9.67;6.33;;;;;;;;5037584;28;45665;-75
2022/10/13 06:55:54;;;;;;;;;8.00;6.00;;;;;;;;5036993;28;45555;-76
2022/10/13 06:58:19;;;;;;;;;5.67;5.00;;;;;;;;5040208;28;45478;-76
2022/10/13 07:00:45;;;;;;;;;7.00;7.00;;;;;;;;5038103;28;45473;-76
2022/10/13 07:03:10;;;;;;;;;6.00;6.00;;;;;;;;5040875;28;45408;-76
2022/10/13 07:05:35;;;;;;;;;8.33;6.67;;;;;;;;5040909;28;46229;-75
2022/10/13 07:08:00;;;;;;;;;6.67;6.67;;;;;;;;5028795;28;45425;-76
2022/10/13 07:10:25;;;;;;;;;8.00;7.00;;;;;;;;5040734;28;45336;-76
2022/10/13 07:12:51;;;;;;;;;5.00;5.00;;;;;;;;5040094;28;45407;-76
2022/10/13 07:15:16;;;;;;;;;7.00;5.33;;;;;;;;5040387;28;45554;-75
2022/10/13 07:17:41;;;;;;;;;12.33;8.00;;;;;;;;5040213;28;45497;-75
2022/10/13 07:20:07;;;;;;;;;9.00;7.33;;;;;;;;5040295;28;45490;-76
2022/10/13 07:22:32;;;;;;;;;7.67;6.00;;;;;;;;5040240;28;45463;-76
2022/10/13 07:24:57;;;;;;;;;9.00;8.00;;;;;;;;5039763;28;46155;-76
2022/10/13 07:27:23;;;;;;;;;7.00;6.00;;;;;;;;5040078;28;45518;-75
2022/10/13 07:29:48;;;;;;;;;8.33;8.33;;;;;;;;5039439;28;45463;-75
2022/10/13 07:32:13;;;;;;;;;7.33;7.33;;;;;;;;5040310;28;45435;-76
2022/10/13 07:34:38;;;;;;;;;10.67;7.33;;;;;;;;5040652;28;46136;-75
2022/10/13 07:37:04;;;;;;;;;10.33;8.00;;;;;;;;5039886;28;45299;-75
2022/10/13 07:39:29;;;;;;;;;8.00;7.33;;;;;;;;5040246;28;45636;-75
2022/10/13 07:41:54;;;;;;;;;7.33;6.33;;;;;;;;5039789;28;45370;-75
2022/10/13 07:44:19;;;;;;;;;7.33;6.00;;;;;;;;5039976;28;46015;-75
2022/10/13 07:46:44;;;;;;;;;12.33;10.33;;;;;;;;5039641;28;45596;-74
2022/10/13 07:49:10;;;;;;;;;10.67;8.33;;;;;;;;5040136;28;45619;-74
2022/10/13 07:51:35;;;;;;;;;13.67;11.00;;;;;;;;5039733;28;46164;-74
2022/10/13 07:54:01;;;;;;;;;9.33;8.33;;;;;;;;5039305;28;46617;-74
2022/10/13 07:56:26;;;;;;;;;10.00;9.00;;;;;;;;5039806;28;45469;-74
2022/10/13 07:58:52;;;;;;;;;9.67;9.00;;;;;;;;5039631;28;45437;-75
2022/10/13 08:01:17;;;;;;;;;6.00;6.00;;;;;;;;5039680;28;45324;-75
2022/10/13 08:03:43;;;;;;;;;7.00;6.00;;;;;;;;5034103;28;45637;-75
2022/10/13 08:06:08;;;;;;;;;8.33;8.00;;;;;;;;5032731;28;45309;-75
2022/10/13 08:08:34;;;;;;;;;7.67;5.67;;;;;;;;5039493;28;45332;-74
2022/10/13 08:11:00;;;;;;;;;9.33;6.67;;;;;;;;5039038;28;45454;-74
2022/10/13 08:13:25;;;;;;;;;8.00;6.33;;;;;;;;5039367;28;45448;-75
2022/10/13 08:15:51;;;;;;;;;7.33;6.00;;;;;;;;5039222;28;45453;-74
2022/10/13 08:18:16;;;;;;;;;7.00;6.00;;;;;;;;5039583;28;45828;-75
2022/10/13 08:20:42;;;;;;;;;8.00;6.67;;;;;;;;5039540;28;45542;-75
2022/10/13 08:23:07;;;;;;;;;8.33;7.33;;;;;;;;5038678;28;45379;-75
2022/10/13 08:25:37;;;;;;;;;6.67;6.67;;;;;;;;5039391;28;45352;-75
2022/10/13 08:28:03;;;;;;;;;9.00;7.00;;;;;;;;5039130;28;45305;-75
2022/10/13 08:30:28;;;;;;;;;7.00;6.33;;;;;;;;5039516;28;45332;-75
2022/10/13 08:32:53;;;;;;;;;6.33;6.33;;;;;;;;5038598;28;46362;-75
2022/10/13 08:35:18;;;;;;;;;8.00;6.67;;;;;;;;5038693;28;45388;-75
2022/10/13 08:37:43;;;;;;;;;7.67;7.67;;;;;;;;5038611;28;45403;-74
2022/10/13 08:40:12;;;;;;;;;4.00;4.00;;;;;;;;5039152;28;45273;-75
2022/10/13 08:42:41;;;;;;;;;4.00;4.00;;;;;;;;5038452;28;45384;-75
2022/10/13 08:45:07;;;;;;;;;6.33;6.33;;;;;;;;5038330;28;45608;-74
2022/10/13 08:47:44;;;;;;;;;6.00;4.67;;;;;;;;5039294;28;45333;-75
2022/10/13 08:50:13;;;;;;;;;7.67;5.00;;;;;;;;5039025;28;45826;-75
2022/10/13 08:52:45;;;;;;;;;8.00;6.33;;;;;;;;5038657;28;46150;-74
2022/10/13 08:55:22;;;;;;;;;6.33;6.33;;;;;;;;5038562;28;45411;-75
2022/10/13 08:57:47;;;;;;;;;8.00;6.67;;;;;;;;5038639;28;45551;-75
2022/10/13 09:00:13;;;;;;;;;10.33;4.00;;;;;;;;5038732;28;45382;-74
2022/10/13 09:02:38;;;;;;;;;6.00;6.00;;;;;;;;5038836;28;46241;-74
2022/10/13 09:05:08;;;;;;;;;6.33;5.00;;;;;;;;5026618;28;45450;-74
2022/10/13 09:07:35;;;;;;;;;5.00;4.00;;;;;;;;5004498;28;45390;-74
2022/10/13 09:10:01;;;;;;;;;5.33;4.00;;;;;;;;5037882;28;45415;-74
2022/10/13 09:12:26;;;;;;;;;7.67;6.33;;;;;;;;5038704;28;46312;-74
2022/10/13 09:15:08;;;;;;;;;7.00;6.00;;;;;;;;5037967;28;45463;-74
2022/10/13 09:17:35;;;;;;;;;6.00;4.33;;;;;;;;5038759;28;45486;-74
2022/10/13 09:20:07;;;;;;;;;4.67;4.67;;;;;;;;5036850;28;45402;-74
2022/10/13 09:22:36;;;;;;;;;6.00;4.33;;;;;;;;5038206;28;47321;-73
2022/10/13 09:25:10;;;;;;;;;5.33;4.67;;;;;;;;5037625;28;45338;-74
2022/10/13 09:27:55;;;;;;;;;4.33;4.00;;;;;;;;5038692;28;45439;-74
2022/10/13 09:30:29;;;;;;;;;5.00;4.00;;;;;;;;5038507;28;45389;-73
2022/10/13 09:33:04;;;;;;;;;6.67;4.00;;;;;;;;5037868;28;46158;-75
2022/10/13 09:35:31;;;;;;;;;6.33;4.33;;;;;;;;5038555;28;45593;-75
2022/10/13 09:38:11;;;;;;;;;4.33;3.00;;;;;;;;5037991;28;45419;-74
2022/10/13 09:40:39;;;;;;;;;4.00;4.00;;;;;;;;5038168;28;45419;-74
2022/10/13 09:43:05;;;;;;;;;5.67;4.67;;;;;;;;5037519;28;45475;-74
2022/10/13 09:45:31;;;;;;;;;4.67;4.67;;;;;;;;5038284;28;46363;-74
2022/10/13 09:47:58;;;;;;;;;4.67;4.67;;;;;;;;5037935;28;45809;-74
2022/10/13 09:50:24;;;;;;;;;3.00;3.00;;;;;;;;5038026;28;45543;-74
2022/10/13 09:52:49;;;;;;;;;4.67;2.33;;;;;;;;5037391;28;45580;-74
2022/10/13 09:55:32;;;;;;;;;4.00;4.00;;;;;;;;5038104;28;45644;-75
2022/10/13 09:58:17;;;;;;;;;6.00;5.00;;;;;;;;5038034;28;45305;-75
2022/10/13 10:00:43;;;;;;;;;6.00;5.00;;;;;;;;5037408;28;45246;-74
2022/10/13 10:03:21;;;;;;;;;6.33;3.33;;;;;;;;5018973;28;46003;-75
2022/10/13 10:05:52;;;;;;;;;5.33;3.00;;;;;;;;5028712;28;45675;-74
2022/10/13 10:08:37;;;;;;;;;5.00;5.00;;;;;;;;5019806;28;45385;-74
2022/10/13 10:11:04;;;;;;;;;6.33;4.33;;;;;;;;5037166;28;45456;-74
2022/10/13 10:13:29;;;;;;;;;4.33;4.33;;;;;;;;5037281;28;45583;-75
2022/10/13 10:16:06;;;;;;;;;9.00;6.00;;;;;;;;5037550;28;45384;-75
2022/10/13 10:18:31;;;;;;;;;6.67;6.00;;;;;;;;5026671;28;45419;-75
2022/10/13 10:21:14;;;;;;;;;6.67;4.00;;;;;;;;5037476;28;45352;-75
2022/10/13 10:23:46;;;;;;;;;6.00;3.00;;;;;;;;5037613;28;46352;-74
2022/10/13 10:26:16;;;;;;;;;4.00;3.67;;;;;;;;5037877;28;45523;-75
2022/10/13 10:28:51;;;;;;;;;6.00;5.67;;;;;;;;5038073;28;45288;-75
2022/10/13 10:31:19;;;;;;;;;6.00;4.33;;;;;;;;5039992;28;45292;-75
2022/10/13 10:34:03;;;;;;;;;5.00;5.00;;;;;;;;5040741;28;46361;-75
2022/10/13 10:36:50;;;;;;;;;3.33;3.33;;;;;;;;5041135;28;45403;-74
2022/10/13 10:39:18;;;;;;;;;4.00;4.00;;;;;;;;5040751;28;45493;-74
2022/10/13 10:41:53;;;;;;;;;6.33;6.33;;;;;;;;5040114;28;45463;-75
2022/10/13 10:44:36;;;;;;;;;7.00;4.00;;;;;;;;5040245;28;45358;-75
2022/10/13 10:47:05;;;;;;;;;8.00;4.00;;;;;;;;5040366;28;45438;-74
2022/10/13 10:49:32;;;;;;;;;6.00;6.00;;;;;;;;5041145;28;45443;-75
2022/10/13 10:52:04;;;;;;;;;5.00;5.00;;;;;;;;5039784;28;45322;-74
2022/10/13 10:54:40;;;;;;;;;7.67;5.00;;;;;;;;5040648;28;45352;-74
2022/10/13 10:57:11;;;;;;;;;5.67;5.67;;;;;;;;5040203;28;45285;-75
2022/10/13 10:59:46;;;;;;;;;6.00;5.00;;;;;;;;5040487;28;45429;-74
2022/10/13 11:02:32;;;;;;;;;6.33;5.67;;;;;;;;5040677;28;45441;-74
2022/10/13 11:04:58;;;;;;;;;5.00;4.00;;;;;;;;5014845;28;45439;-76
2022/10/13 11:07:23;;;;;;;;;6.33;6.33;;;;;;;;5040923;28;45292;-75
2022/10/13 11:09:51;;;;;;;;;6.33;5.00;;;;;;;;5040264;28;45486;-75
2022/10/13 11:12:20;;;;;;;;;5.33;4.33;;;;;;;;5040752;28;45392;-75
2022/10/13 11:15:04;;;;;;;;;4.00;4.00;;;;;;;;5039834;28;46386;-75
2022/10/13 11:17:31;;;;;;;;;6.33;6.33;;;;;;;;5040537;28;45402;-75
2022/10/13 11:19:57;;;;;;;;;7.33;5.33;;;;;;;;5040086;28;45506;-75
2022/10/13 11:22:24;;;;;;;;;5.67;3.67;;;;;;;;5040392;28;45402;-75
2022/10/13 11:24:53;;;;;;;;;6.00;5.00;;;;;;;;5039374;28;46341;-75
2022/10/13 11:27:23;;;;;;;;;5.00;3.00;;;;;;;;5039619;28;45483;-75
2022/10/13 11:29:56;;;;;;;;;4.67;4.67;;;;;;;;5039925;28;45392;-76
2022/10/13 11:32:24;;;;;;;;;8.00;7.00;;;;;;;;5040198;28;45508;-75
2022/10/13 11:35:00;;;;;;;;;6.00;6.00;;;;;;;;5039722;28;47170;-75
2022/10/13 11:37:33;;;;;;;;;6.00;5.00;;;;;;;;5039986;28;45280;-75
2022/10/13 11:40:03;;;;;;;;;7.00;6.00;;;;;;;;5039836;28;45783;-75
2022/10/13 11:42:46;;;;;;;;;8.00;7.00;;;;;;;;5039118;28;45429;-75
2022/10/13 11:45:37;;;;;;;;;8.33;7.00;;;;;;;;5040159;28;45499;-75
2022/10/13 11:48:21;;;;;;;;;9.00;7.67;;;;;;;;5023538;28;45465;-74
2022/10/13 11:51:04;;;;;;;;;5.67;5.00;;;;;;;;5038417;28;45494;-74
2022/10/13 11:53:40;;;;;;;;;15.33;14.33;;;;;;;;5039645;28;45442;-74
2022/10/13 11:56:16;;;;;;;;;9.00;9.00;;;;;;;;5039590;28;46324;-75
2022/10/13 11:58:42;;;;;;;;;9.67;6.67;;;;;;;;5039647;28;45405;-75
2022/10/13 12:01:12;;;;;;;;;8.00;7.67;;;;;;;;5038182;28;45345;-75
2022/10/13 12:03:39;;;;;;;;;12.67;8.67;;;;;;;;5034301;28;45427;-74
2022/10/13 12:06:06;;;;;;;;;8.00;8.00;;;;;;;;5031952;28;46203;-75
2022/10/13 12:08:33;;;;;;;;;8.33;8.00;;;;;;;;5039329;28;45426;-75
2022/10/13 12:11:01;;;;;;;;;10.00;7.00;;;;;;;;5039532;28;45798;-74
2022/10/13 12:13:30;;;;;;;;;10.00;9.67;;;;;;;;5038921;28;45481;-74
2022/10/13 12:16:02;;;;;;;;;9.00;9.00;;;;;;;;5039182;28;45429;-74
2022/10/13 12:18:32;;;;;;;;;10.00;7.00;;;;;;;;5025986;28;45174;-75
2022/10/13 12:20:59;;;;;;;;;13.33;11.00;;;;;;;;5039128;28;45435;-75
2022/10/13 12:23:25;;;;;;;;;9.33;9.33;;;;;;;;5039474;28;45523;-75
2022/10/13 12:25:56;;;;;;;;;10.67;9.33;;;;;;;;5038534;28;45351;-75
2022/10/13 12:28:22;;;;;;;;;11.00;11.00;;;;;;;;5039158;28;45426;-75
2022/10/13 12:30:55;;;;;;;;;8.00;7.00;;;;;;;;5038653;28;45430;-75
2022/10/13 12:33:31;;;;;;;;;7.00;7.00;;;;;;;;5039557;28;45629;-75
2022/10/13 12:36:12;;;;;;;;;1.00;1.00;;;;;;;;5038649;28;45463;-75
2022/10/13 12:38:38;;;;;;;;;8.00;8.00;;;;;;;;5020615;28;45372;-75
2022/10/13 12:41:04;;;;;;;;;8.67;5.33;;;;;;;;5039142;28;45420;-75
2022/10/13 12:43:29;;;;;;;;;7.67;7.67;;;;;;;;5039242;28;45328;-73
2022/10/13 12:45:54;;;;;;;;;7.00;7.00;;;;;;;;5038797;28;45462;-72
2022/10/13 12:48:34;;;;;;;;;12.33;10.00;;;;;;;;5038833;28;45423;-73
2022/10/13 12:51:08;;;;;;;;;6.00;6.00;;;;;;;;5038706;28;45414;-73
2022/10/13 12:53:33;;;;;;;;;9.67;7.33;;;;;;;;5037461;28;45638;-73
2022/10/13 12:56:00;;;;;;;;;7.00;7.00;;;;;;;;5038255;28;45671;-73
2022/10/13 12:58:27;;;;;;;;;9.00;6.33;;;;;;;;5038917;28;45340;-73
2022/10/13 13:00:54;;;;;;;;;8.00;7.00;;;;;;;;5038614;28;45285;-73
2022/10/13 13:03:21;;;;;;;;;10.67;9.33;;;;;;;;5036080;28;45395;-73
2022/10/13 13:05:48;;;;;;;;;5.00;5.00;;;;;;;;5029077;28;46936;-73
2022/10/13 13:08:19;;;;;;;;;6.67;5.00;;;;;;;;5038468;28;45692;-73
2022/10/13 13:10:57;;;;;;;;;7.00;5.67;;;;;;;;5037798;28;45497;-73
2022/10/13 13:13:22;;;;;;;;;7.00;5.67;;;;;;;;5038629;28;45599;-72
2022/10/13 13:15:48;;;;;;;;;5.00;5.00;;;;;;;;5038132;28;46261;-74
2022/10/13 13:18:25;;;;;;;;;6.67;4.67;;;;;;;;5038538;28;45875;-74
2022/10/13 13:20:50;;;;;;;;;3.00;3.00;;;;;;;;5038190;28;45426;-74
2022/10/13 13:23:18;;;;;;;;;4.00;4.00;;;;;;;;5038902;28;45321;-74
2022/10/13 13:25:44;;;;;;;;;3.00;1.67;;;;;;;;5020301;28;46847;-71
2022/10/13 13:28:11;;;;;;;;;4.33;3.00;;;;;;;;5038582;28;45641;-74
2022/10/13 13:30:36;;;;;;;;;4.00;4.00;;;;;;;;5020449;28;45551;-74
2022/10/13 13:33:02;;;;;;;;;4.00;4.00;;;;;;;;5038323;28;45361;-74
2022/10/13 13:35:27;;;;;;;;;4.00;4.00;;;;;;;;5037313;28;45383;-74
2022/10/13 13:37:52;;;;;;;;;3.67;3.67;;;;;;;;5037790;28;45716;-74
2022/10/13 13:40:22;;;;;;;;;3.00;3.00;;;;;;;;5038109;28;45439;-74
2022/10/13 13:42:48;;;;;;;;;4.00;2.67;;;;;;;;5038091;28;45444;-74
2022/10/13 13:45:14;;;;;;;;;3.67;3.67;;;;;;;;5038107;28;45241;-74
2022/10/13 13:47:39;;;;;;;;;4.67;4.00;;;;;;;;5020573;28;45762;-74
2022/10/13 13:50:10;;;;;;;;;3.67;3.00;;;;;;;;5037595;28;45693;-75
2022/10/13 13:52:35;;;;;;;;;4.67;3.33;;;;;;;;5038462;28;45649;-73
2022/10/13 13:55:00;;;;;;;;;5.00;5.00;;;;;;;;5036882;28;45333;-73
2022/10/13 13:57:25;;;;;;;;;4.67;3.67;;;;;;;;5038376;28;45253;-73
2022/10/13 13:59:51;;;;;;;;;3.67;3.67;;;;;;;;5037457;28;45592;-74
2022/10/13 14:02:18;;;;;;;;;2.00;2.00;;;;;;;;5038239;28;45356;-73
2022/10/13 14:04:43;;;;;;;;;5.00;4.00;;;;;;;;5026068;28;47198;-73
2022/10/13 14:07:09;;;;;;;;;8.00;6.00;;;;;;;;5041510;28;45298;-74
2022/10/13 14:09:34;;;;;;;;;6.00;6.00;;;;;;;;5041501;28;45218;-73
2022/10/13 14:11:59;;;;;;;;;6.67;4.33;;;;;;;;5041080;28;45365;-74
2022/10/13 14:14:24;;;;;;;;;3.00;3.00;;;;;;;;5041154;28;46080;-73
2022/10/13 14:16:50;;;;;;;;;6.00;5.67;;;;;;;;5041042;28;45437;-75
2022/10/13 14:19:15;;;;;;;;;6.00;6.00;;;;;;;;5041585;28;45536;-75
2022/10/13 14:21:40;;;;;;;;;7.00;6.00;;;;;;;;5041304;28;45337;-74
2022/10/13 14:24:06;;;;;;;;;7.00;6.00;;;;;;;;5039172;28;46003;-74
2022/10/13 14:26:31;;;;;;;;;8.00;6.33;;;;;;;;5040898;28;45385;-73
2022/10/13 14:28:57;;;;;;;;;5.67;4.67;;;;;;;;5040834;28;45336;-73
2022/10/13 14:31:22;;;;;;;;;5.00;5.00;;;;;;;;5039945;28;45926;-74
2022/10/13 14:33:47;;;;;;;;;9.67;7.00;;;;;;;;5040072;28;45400;-74
2022/10/13 14:36:12;;;;;;;;;7.00;5.33;;;;;;;;5041002;28;45507;-74
2022/10/13 14:38:38;;;;;;;;;6.00;6.00;;;;;;;;5040693;28;45506;-74
2022/10/13 14:41:04;;;;;;;;;5.67;5.67;;;;;;;;5040804;28;45404;-74
2022/10/13 14:43:30;;;;;;;;;9.33;7.00;;;;;;;;5022129;28;46622;-74
2022/10/13 14:45:59;;;;;;;;;6.00;6.00;;;;;;;;5038883;28;45411;-76
2022/10/13 14:48:24;;;;;;;;;5.67;5.00;;;;;;;;5037266;28;45378;-75
2022/10/13 14:50:49;;;;;;;;;6.00;5.33;;;;;;;;5040698;28;45721;-74
2022/10/13 14:53:15;;;;;;;;;5.00;5.00;;;;;;;;5037264;28;45908;-74
2022/10/13 14:55:43;;;;;;;;;8.00;7.00;;;;;;;;5040663;28;45365;-74
2022/10/13 14:58:09;;;;;;;;;6.67;6.67;;;;;;;;5040527;28;45370;-74
2022/10/13 15:00:34;;;;;;;;;5.67;5.00;;;;;;;;5034807;28;45638;-74
2022/10/13 15:02:59;;;;;;;;;7.33;6.00;;;;;;;;5040337;28;46295;-74
2022/10/13 15:05:24;;;;;;;;;8.00;7.33;;;;;;;;5047349;28;45492;-73
2022/10/13 15:07:50;;;;;;;;;5.00;4.67;;;;;;;;5040118;28;45324;-73
2022/10/13 15:10:15;;;;;;;;;7.00;7.00;;;;;;;;5040668;28;45298;-73
2022/10/13 15:12:40;;;;;;;;;7.67;7.33;;;;;;;;5040478;28;46269;-74
2022/10/13 15:15:06;;;;;;;;;8.33;6.00;;;;;;;;5040011;28;45474;-74
2022/10/13 15:17:32;;;;;;;;;7.00;7.00;;;;;;;;5039602;28;45317;-74
2022/10/13 15:19:57;;;;;;;;;8.00;6.33;;;;;;;;5039971;28;45564;-74
2022/10/13 15:22:22;;;;;;;;;6.00;5.00;;;;;;;;5040173;28;45312;-73
2022/10/13 15:24:47;;;;;;;;;6.00;6.00;;;;;;;;5039473;28;45348;-74
2022/10/13 15:27:13;;;;;;;;;6.00;6.00;;;;;;;;5039777;28;45340;-74
2022/10/13 15:29:38;;;;;;;;;9.33;7.33;;;;;;;;5040049;28;45289;-71
2022/10/13 15:32:08;;;;;;;;;6.67;5.00;;;;;;;;5031538;28;45518;-72
2022/10/13 15:34:33;;;;;;;;;6.67;5.33;;;;;;;;5035184;28;45829;-70
2022/10/13 15:36:58;;;;;;;;;6.67;6.33;;;;;;;;5036000;28;45730;-70
2022/10/13 15:39:23;;;;;;;;;7.33;6.00;;;;;;;;5036003;28;46092;-71
2022/10/13 15:41:48;;;;;;;;;7.67;6.33;;;;;;;;5037829;28;45553;-71
2022/10/13 15:44:15;;;;;;;;;6.33;5.33;;;;;;;;5039239;28;45420;-71
2022/10/13 15:46:41;;;;;;;;;7.00;7.00;;;;;;;;5039066;28;45366;-70
2022/10/13 15:49:06;;;;;;;;;11.00;8.67;;;;;;;;5038469;28;45566;-70
2022/10/13 15:51:32;;;;;;;;;8.00;7.33;;;;;;;;5038822;28;46131;-70
2022/10/13 15:53:58;;;;;;;;;6.00;6.00;;;;;;;;5029402;28;46128;-71
2022/10/13 15:56:23;;;;;;;;;9.00;6.00;;;;;;;;5039196;28;45442;-71
2022/10/13 15:58:48;;;;;;;;;7.33;7.33;;;;;;;;5038246;28;45522;-70
2022/10/13 16:01:13;;;;;;;;;6.33;6.00;;;;;;;;5034773;28;45421;-71
2022/10/13 16:03:39;;;;;;;;;7.00;5.33;;;;;;;;5025389;28;45611;-71
2022/10/13 16:06:05;;;;;;;;;8.67;7.00;;;;;;;;5038657;28;45736;-71
2022/10/13 16:08:30;;;;;;;;;7.00;7.00;;;;;;;;5039064;28;45526;-71
2022/10/13 16:10:56;;;;;;;;;7.00;7.00;;;;;;;;5035747;28;46070;-71
2022/10/13 16:13:21;;;;;;;;;9.67;8.33;;;;;;;;5038982;28;45457;-71
2022/10/13 16:15:56;;;;;;;;;10.67;7.67;;;;;;;;5031921;28;45459;-71
2022/10/13 16:18:22;;;;;;;;;6.33;6.33;;;;;;;;5039867;28;45546;-71
2022/10/13 16:20:47;;;;;;;;;8.67;7.67;;;;;;;;5035165;28;45463;-71
2022/10/13 16:23:12;;;;;;;;;10.33;8.00;;;;;;;;5039190;28;45317;-71
2022/10/13 16:25:38;;;;;;;;;8.67;7.00;;;;;;;;5038588;28;45585;-70
2022/10/13 16:28:03;;;;;;;;;8.00;7.00;;;;;;;;5037880;28;45483;-70
2022/10/13 16:30:29;;;;;;;;;7.00;7.00;;;;;;;;5038980;28;45467;-71
2022/10/13 16:32:54;;;;;;;;;9.00;9.00;;;;;;;;5038877;28;45469;-70
2022/10/13 16:35:19;;;;;;;;;10.67;9.67;;;;;;;;5039566;28;45483;-70
2022/10/13 16:37:45;;;;;;;;;7.00;7.00;;;;;;;;5037334;28;45590;-70
2022/10/13 16:40:10;;;;;;;;;11.00;8.67;;;;;;;;5038382;28;46055;-70
2022/10/13 16:42:35;;;;;;;;;8.67;8.67;;;;;;;;5039261;28;45452;-70
2022/10/13 16:45:00;;;;;;;;;11.00;10.33;;;;;;;;5038678;28;45565;-70
2022/10/13 16:47:26;;;;;;;;;7.33;7.33;;;;;;;;5038443;28;45499;-70
2022/10/13 16:49:51;;;;;;;;;8.33;8.33;;;;;;;;5038057;28;46237;-70
2022/10/13 16:52:16;;;;;;;;;8.67;8.00;;;;;;;;5038804;28;45379;-70
2022/10/13 16:54:41;;;;;;;;;7.00;7.00;;;;;;;;5038751;28;45343;-70
2022/10/13 16:57:06;;;;;;;;;14.33;10.67;;;;;;;;5038168;28;45299;-70
2022/10/13 16:59:32;;;;;;;;;13.00;11.33;;;;;;;;5033619;28;45297;-71
2022/10/13 17:01:58;;;;;;;;;10.67;10.67;;;;;;;;5038154;28;45317;-70
2022/10/13 17:04:23;;;;;;;;;12.67;10.67;;;;;;;;5038664;28;45755;-70
2022/10/13 17:06:48;;;;;;;;;9.00;7.33;;;;;;;;5037841;28;45597;-70
2022/10/13 17:09:14;;;;;;;;;10.67;8.00;;;;;;;;5038485;28;46300;-70
2022/10/13 17:11:39;;;;;;;;;8.33;8.33;;;;;;;;5038038;28;45488;-70
2022/10/13 17:14:04;;;;;;;;;12.33;12.00;;;;;;;;5038209;28;45692;-70
2022/10/13 17:16:30;;;;;;;;;11.33;11.33;;;;;;;;5020500;28;45430;-70
2022/10/13 17:18:55;;;;;;;;;11.67;10.00;;;;;;;;5037346;28;46014;-65
2022/10/13 17:21:21;;;;;;;;;16.67;12.33;;;;;;;;5037214;28;45293;-65
2022/10/13 17:23:46;;;;;;;;;15.00;11.33;;;;;;;;5037606;28;45479;-65
2022/10/13 17:26:12;;;;;;;;;14.00;12.67;;;;;;;;5038505;28;45287;-66
2022/10/13 17:28:38;;;;;;;;;18.67;14.33;;;;;;;;5034963;28;45551;-66
2022/10/13 17:31:04;;;;;;;;;18.33;14.67;;;;;;;;5029561;28;45736;-66
2022/10/13 17:33:31;;;;;;;;;12.00;11.33;;;;;;;;5008582;28;45754;-70
2022/10/13 17:36:01;;;;;;;;;13.00;11.67;;;;;;;;5030085;28;47094;-70
2022/10/13 17:38:27;;;;;;;;;16.33;13.67;;;;;;;;5034782;28;45332;-70
2022/10/13 17:40:52;;;;;;;;;9.33;8.00;;;;;;;;5032648;28;46599;-70
2022/10/13 17:43:17;;;;;;;;;19.00;14.00;;;;;;;;5031625;28;45457;-70
2022/10/13 17:45:42;;;;;;;;;12.00;11.33;;;;;;;;5030945;28;45607;-70
2022/10/13 17:48:08;;;;;;;;;14.00;13.00;;;;;;;;5030014;28;46221;-70
2022/10/13 17:50:34;;;;;;;;;17.00;14.67;;;;;;;;5034502;28;45437;-69
2022/10/13 17:52:59;;;;;;;;;15.00;14.33;;;;;;;;5028611;28;45503;-70
2022/10/13 17:55:24;;;;;;;;;14.67;12.00;;;;;;;;5035224;28;45530;-70
2022/10/13 17:57:49;;;;;;;;;19.00;17.33;;;;;;;;5036607;28;45426;-69
2022/10/13 18:00:15;;;;;;;;;17.00;14.67;;;;;;;;5033953;28;45375;-69
2022/10/13 18:02:40;;;;;;;;;15.33;15.33;;;;;;;;5036145;28;45363;-69
2022/10/13 18:05:05;;;;;;;;;15.33;15.00;;;;;;;;5032278;28;45536;-69
2022/10/13 18:07:31;;;;;;;;;16.67;16.67;;;;;;;;5031421;28;46057;-69
2022/10/13 18:09:56;;;;;;;;;18.33;17.67;;;;;;;;5034568;28;45653;-69
2022/10/13 18:12:21;;;;;;;;;15.00;15.00;;;;;;;;5035620;28;46715;-70
2022/10/13 18:14:46;;;;;;;;;16.00;14.33;;;;;;;;5036159;28;45354;-69
2022/10/13 18:17:12;;;;;;;;;15.67;15.33;;;;;;;;5037300;28;45623;-69
2022/10/13 18:19:37;;;;;;;;;17.67;15.00;;;;;;;;5034082;28;45486;-69
2022/10/13 18:22:02;;;;;;;;;13.00;13.00;;;;;;;;5035825;28;45402;-69
2022/10/13 18:24:27;;;;;;;;;18.67;16.33;;;;;;;;5014117;28;45629;-69
2022/10/13 18:26:53;;;;;;;;;15.33;15.00;;;;;;;;5030137;28;45651;-69
2022/10/13 18:29:18;;;;;;;;;14.00;12.67;;;;;;;;5035205;28;45343;-70
2022/10/13 18:31:44;;;;;;;;;18.33;16.00;;;;;;;;5035535;28;45384;-68
2022/10/13 18:34:10;;;;;;;;;17.67;15.67;;;;;;;;5017742;28;45625;-68
2022/10/13 18:36:37;;;;;;;;;20.33;18.67;;;;;;;;5037835;28;46093;-69
2022/10/13 18:39:12;;;;;;;;;24.00;21.00;;;;;;;;5034000;28;45535;-69
2022/10/13 18:41:38;;;;;;;;;16.67;15.67;;;;;;;;5033232;28;46429;-69
2022/10/13 18:44:04;;;;;;;;;17.67;16.67;;;;;;;;5032596;28;45782;-68
2022/10/13 18:46:30;;;;;;;;;17.33;15.00;;;;;;;;5032201;28;47128;-68
2022/10/13 18:48:56;;;;;;;;;18.33;16.33;;;;;;;;5033706;28;45712;-69
2022/10/13 18:51:21;;;;;;;;;17.67;17.00;;;;;;;;5036339;28;45489;-69
2022/10/13 18:53:47;;;;;;;;;18.33;18.00;;;;;;;;5036422;28;45475;-69
2022/10/13 18:56:14;;;;;;;;;16.33;14.67;;;;;;;;5036590;28;46063;-70
2022/10/13 18:58:39;;;;;;;;;17.67;14.33;;;;;;;;5038315;28;45403;-70
2022/10/13 19:01:06;;;;;;;;;17.33;16.33;;;;;;;;5034436;28;45373;-70
2022/10/13 19:03:32;;;;;;;;;15.67;15.67;;;;;;;;5042688;28;45341;-70
2022/10/13 19:05:57;;;;;;;;;20.33;19.33;;;;;;;;5037753;28;45848;-70
2022/10/13 19:08:22;;;;;;;;;18.33;17.67;;;;;;;;5029785;28;45313;-71